Flight Track Log - Related Links

Times and Time Zones

All times are in EDT time to prevent confusion due to time zone crossing. See the EJA951 flight status page for this flight to view local times or setup timezone preferences in your user account.

Time Position Orientation Groundspeed Altitude Reporting Facility
EDT Latitude Longitude Course Direction KTS MPH feet Rate Location/Type
Wed 05:37:37 PM 41.4667 -74.3167 257° West 259 298 5,000  Level New York TRACON
Wed 05:38:37 PM 41.4500 -74.4167 257° West 253 291 5,000  Level New York TRACON
Wed 05:39:37 PM 41.4333 -74.5167 257° West 268 308 5,000  Level New York TRACON
Wed 05:40:37 PM 41.4000 -74.6000 242° Southwest 272 313 5,000  Level New York TRACON
Wed 05:41:37 PM 41.3500 -74.6667 225° Southwest 259 298 5,000 132 Level New York TRACON
Wed 05:55:00 PM 40.6333 -75.4667 220° Southwest 287 330 6,900 133 Climbing Philadelphia TRACON
Wed 05:56:36 PM 40.5167 -75.5000 192° South 267 307 7,000 40 Climbing Philadelphia TRACON
Wed 05:57:30 PM 40.4500 -75.5167 191° South 267 307 7,000  Level Philadelphia TRACON
Wed 05:58:30 PM 40.3833 -75.5333 191° South 269 310 7,000  Level Philadelphia TRACON
Wed 05:59:30 PM 40.3000 -75.5500 189° South 271 312 7,000 -450 Level Philadelphia TRACON
Wed 06:00:30 PM 40.2333 -75.5833 201° Southwest 266 306 6,100 -500 Descending Philadelphia TRACON
Wed 06:01:30 PM 40.1667 -75.6000 191° South 264 304 6,000 -200 Descending Philadelphia TRACON
Wed 06:02:30 PM 40.0833 -75.6167 189° South 265 305 5,700 -1,107 Descending Philadelphia TRACON
Wed 06:03:13 PM 40.0333 -75.6167 180° South 244 281 4,100 -1,650 Descending Philadelphia TRACON
Wed 06:04:30 PM 39.9667 -75.6333 191° South 183 211 2,400 -773 Descending Philadelphia TRACON
Wed 06:05:25 PM 39.9500 -75.6833 247° West 185 213 2,400  Level Philadelphia TRACON
Wed 06:06:25 PM 39.9667 -75.7500 220° Southwest 189 217 2,400  Level Philadelphia TRACON
Wed 06:08:00 PM 39.9683 -75.8484 217° Southwest  Level FlightAware Approximate
Wed 06:15:00 PM 39.9667 -75.8500 217° Southwest  Level FlightAware Approximate
Wed 06:16:00 PM 39.9790 -75.8655 217° Southwest  Level Estimated

Login

Don't have an account? Register now (free) for customized features, flight alerts, and more!